Terminal Aerodrome Forecast
Issued by NWS Atlanta, GA

Home | Current Version | Previous Version | Text Only | Print | Product List | Glossary On
Versions: 1 2 3 4 5 6 7 8 9 10 11 12 13 14 15 16 17 18 19 20 21 22 23 24 25 26 27 28 29 30 31 32
059
FTUS42 KFFC 222112 AAA
TAFMCN
TAF AMD
KMCN 222112Z 2221/2318 10010G25KT 4SM RA BR SCT040 BKN070
      TEMPO 2221/2223 VRB15G30KT 2SM TSRA BR BKN012CB
     FM222300 22014KT 4SM TSRA OVC015CB
     FM230000 25012KT P6SM VCSH BKN030 BKN150
     FM230300 26010KT 5SM -SHRA BR BKN030
     FM231200 26013G23KT 3SM BR BKN015
     FM231500 30016G26KT P6SM BKN025=

USA.gov is the U.S. government's official web portal to all federal, state and local government web resources and services.